sensor_id;sensor_type;location;lat;lon;timestamp;P1;durP1;ratioP1;P2;durP2;ratioP2
57923;SDS011;43737;50.632;3.070;2022-07-29T00:01:00;6.10;;;2.40;;
57923;SDS011;43737;50.632;3.070;2022-07-29T00:03:26;11.65;;;2.95;;
57923;SDS011;43737;50.632;3.070;2022-07-29T00:05:52;11.20;;;2.97;;
57923;SDS011;43737;50.632;3.070;2022-07-29T00:08:18;5.88;;;2.40;;
57923;SDS011;43737;50.632;3.070;2022-07-29T00:10:44;6.95;;;2.35;;
57923;SDS011;43737;50.632;3.070;2022-07-29T00:13:10;12.20;;;2.50;;
57923;SDS011;43737;50.632;3.070;2022-07-29T00:15:36;4.43;;;2.13;;
57923;SDS011;43737;50.632;3.070;2022-07-29T00:18:03;7.28;;;2.78;;
57923;SDS011;43737;50.632;3.070;2022-07-29T00:20:29;8.32;;;2.50;;
57923;SDS011;43737;50.632;3.070;2022-07-29T00:22:55;7.63;;;2.30;;
57923;SDS011;43737;50.632;3.070;2022-07-29T00:25:21;10.70;;;3.00;;
57923;SDS011;43737;50.632;3.070;2022-07-29T00:27:47;6.20;;;2.50;;
57923;SDS011;43737;50.632;3.070;2022-07-29T00:30:13;6.53;;;2.03;;
57923;SDS011;43737;50.632;3.070;2022-07-29T00:32:39;7.15;;;2.65;;
57923;SDS011;43737;50.632;3.070;2022-07-29T00:35:05;12.88;;;2.42;;
57923;SDS011;43737;50.632;3.070;2022-07-29T00:37:50;7.95;;;2.55;;
57923;SDS011;43737;50.632;3.070;2022-07-29T00:40:16;11.55;;;2.40;;
57923;SDS011;43737;50.632;3.070;2022-07-29T00:42:43;7.45;;;2.35;;
57923;SDS011;43737;50.632;3.070;2022-07-29T00:45:09;5.75;;;2.20;;
57923;SDS011;43737;50.632;3.070;2022-07-29T00:47:35;9.48;;;2.70;;
57923;SDS011;43737;50.632;3.070;2022-07-29T00:50:01;6.07;;;2.35;;
57923;SDS011;43737;50.632;3.070;2022-07-29T00:52:27;12.00;;;2.00;;
57923;SDS011;43737;50.632;3.070;2022-07-29T00:54:53;6.22;;;2.30;;
57923;SDS011;43737;50.632;3.070;2022-07-29T00:57:19;6.85;;;2.60;;
57923;SDS011;43737;50.632;3.070;2022-07-29T00:59:45;9.48;;;2.58;;
57923;SDS011;43737;50.632;3.070;2022-07-29T01:02:11;7.30;;;2.40;;
57923;SDS011;43737;50.632;3.070;2022-07-29T01:04:37;9.48;;;2.70;;
57923;SDS011;43737;50.632;3.070;2022-07-29T01:07:04;7.82;;;3.25;;
57923;SDS011;43737;50.632;3.070;2022-07-29T01:09:34;8.32;;;2.63;;
57923;SDS011;43737;50.632;3.070;2022-07-29T01:12:00;8.52;;;2.60;;
57923;SDS011;43737;50.632;3.070;2022-07-29T01:14:27;13.85;;;3.03;;
57923;SDS011;43737;50.632;3.070;2022-07-29T01:19:33;7.13;;;2.45;;
57923;SDS011;43737;50.632;3.070;2022-07-29T01:21:59;8.57;;;3.08;;
57923;SDS011;43737;50.632;3.070;2022-07-29T01:27:15;9.50;;;3.25;;
57923;SDS011;43737;50.632;3.070;2022-07-29T01:29:55;9.20;;;2.83;;
57923;SDS011;43737;50.632;3.070;2022-07-29T01:32:24;11.90;;;2.95;;
57923;SDS011;43737;50.632;3.070;2022-07-29T01:37:47;7.18;;;2.40;;
57923;SDS011;43737;50.632;3.070;2022-07-29T01:40:22;6.28;;;2.65;;
57923;SDS011;43737;50.632;3.070;2022-07-29T01:42:54;8.38;;;2.97;;
57923;SDS011;43737;50.632;3.070;2022-07-29T01:45:26;5.95;;;2.47;;
57923;SDS011;43737;50.632;3.070;2022-07-29T01:47:59;8.52;;;2.50;;
57923;SDS011;43737;50.632;3.070;2022-07-29T01:50:31;8.38;;;2.40;;
57923;SDS011;43737;50.632;3.070;2022-07-29T01:52:59;6.97;;;2.65;;
57923;SDS011;43737;50.632;3.070;2022-07-29T01:55:31;8.75;;;2.80;;
57923;SDS011;43737;50.632;3.070;2022-07-29T01:57:58;7.32;;;2.47;;
57923;SDS011;43737;50.632;3.070;2022-07-29T02:00:25;11.13;;;2.95;;
57923;SDS011;43737;50.632;3.070;2022-07-29T02:02:51;7.53;;;2.33;;
57923;SDS011;43737;50.632;3.070;2022-07-29T02:05:19;8.27;;;2.60;;
57923;SDS011;43737;50.632;3.070;2022-07-29T02:07:46;15.73;;;3.25;;
57923;SDS011;43737;50.632;3.070;2022-07-29T02:10:12;5.03;;;2.45;;
57923;SDS011;43737;50.632;3.070;2022-07-29T02:12:38;5.78;;;2.58;;
57923;SDS011;43737;50.632;3.070;2022-07-29T02:15:06;8.25;;;2.30;;
57923;SDS011;43737;50.632;3.070;2022-07-29T02:17:34;5.68;;;2.70;;
57923;SDS011;43737;50.632;3.070;2022-07-29T02:20:02;14.10;;;3.15;;
57923;SDS011;43737;50.632;3.070;2022-07-29T02:22:31;8.77;;;3.30;;
57923;SDS011;43737;50.632;3.070;2022-07-29T02:24:59;8.63;;;3.10;;
57923;SDS011;43737;50.632;3.070;2022-07-29T02:27:25;11.25;;;3.47;;
57923;SDS011;43737;50.632;3.070;2022-07-29T02:29:52;8.50;;;3.20;;
57923;SDS011;43737;50.632;3.070;2022-07-29T02:32:19;17.58;;;3.53;;
57923;SDS011;43737;50.632;3.070;2022-07-29T02:34:47;5.88;;;3.00;;
57923;SDS011;43737;50.632;3.070;2022-07-29T02:37:13;9.35;;;2.88;;
57923;SDS011;43737;50.632;3.070;2022-07-29T02:39:42;10.60;;;3.75;;
57923;SDS011;43737;50.632;3.070;2022-07-29T02:42:10;6.45;;;3.97;;
57923;SDS011;43737;50.632;3.070;2022-07-29T02:44:37;8.73;;;3.90;;
57923;SDS011;43737;50.632;3.070;2022-07-29T02:47:05;9.45;;;4.20;;
57923;SDS011;43737;50.632;3.070;2022-07-29T02:52:00;9.90;;;4.57;;
57923;SDS011;43737;50.632;3.070;2022-07-29T02:56:55;10.77;;;4.82;;
57923;SDS011;43737;50.632;3.070;2022-07-29T02:59:23;11.50;;;5.30;;
57923;SDS011;43737;50.632;3.070;2022-07-29T03:01:51;11.55;;;5.30;;
57923;SDS011;43737;50.632;3.070;2022-07-29T03:04:18;7.70;;;4.63;;
57923;SDS011;43737;50.632;3.070;2022-07-29T03:06:44;15.45;;;5.38;;
57923;SDS011;43737;50.632;3.070;2022-07-29T03:09:11;13.80;;;5.03;;
57923;SDS011;43737;50.632;3.070;2022-07-29T03:11:38;12.60;;;5.28;;
57923;SDS011;43737;50.632;3.070;2022-07-29T03:14:04;11.05;;;5.10;;
57923;SDS011;43737;50.632;3.070;2022-07-29T03:16:31;9.82;;;4.80;;
57923;SDS011;43737;50.632;3.070;2022-07-29T03:19:01;16.10;;;5.97;;
57923;SDS011;43737;50.632;3.070;2022-07-29T03:21:27;9.82;;;5.40;;
57923;SDS011;43737;50.632;3.070;2022-07-29T03:23:53;15.00;;;5.82;;
57923;SDS011;43737;50.632;3.070;2022-07-29T03:26:19;10.95;;;5.93;;
57923;SDS011;43737;50.632;3.070;2022-07-29T03:28:45;12.73;;;5.45;;
57923;SDS011;43737;50.632;3.070;2022-07-29T03:31:11;13.85;;;6.80;;
57923;SDS011;43737;50.632;3.070;2022-07-29T03:33:37;11.52;;;5.97;;
57923;SDS011;43737;50.632;3.070;2022-07-29T03:36:03;14.35;;;6.78;;
57923;SDS011;43737;50.632;3.070;2022-07-29T03:38:30;12.23;;;6.63;;
57923;SDS011;43737;50.632;3.070;2022-07-29T03:40:58;9.88;;;6.30;;
57923;SDS011;43737;50.632;3.070;2022-07-29T03:43:27;11.32;;;6.88;;
57923;SDS011;43737;50.632;3.070;2022-07-29T03:45:56;13.65;;;6.10;;
57923;SDS011;43737;50.632;3.070;2022-07-29T03:48:23;16.55;;;8.10;;
57923;SDS011;43737;50.632;3.070;2022-07-29T03:50:50;11.38;;;6.20;;
57923;SDS011;43737;50.632;3.070;2022-07-29T03:53:16;13.75;;;6.45;;
57923;SDS011;43737;50.632;3.070;2022-07-29T03:55:43;10.98;;;6.72;;
57923;SDS011;43737;50.632;3.070;2022-07-29T03:58:10;9.45;;;6.32;;
57923;SDS011;43737;50.632;3.070;2022-07-29T04:00:37;15.60;;;7.10;;
57923;SDS011;43737;50.632;3.070;2022-07-29T04:03:03;15.90;;;6.28;;
57923;SDS011;43737;50.632;3.070;2022-07-29T04:05:30;17.33;;;6.10;;
57923;SDS011;43737;50.632;3.070;2022-07-29T04:07:56;13.55;;;7.28;;
57923;SDS011;43737;50.632;3.070;2022-07-29T04:10:22;8.65;;;6.68;;
57923;SDS011;43737;50.632;3.070;2022-07-29T04:12:48;10.40;;;6.25;;
57923;SDS011;43737;50.632;3.070;2022-07-29T04:15:14;16.95;;;6.57;;
57923;SDS011;43737;50.632;3.070;2022-07-29T04:17:40;15.00;;;6.53;;
57923;SDS011;43737;50.632;3.070;2022-07-29T04:20:06;13.57;;;6.28;;
57923;SDS011;43737;50.632;3.070;2022-07-29T04:22:33;10.20;;;6.40;;
57923;SDS011;43737;50.632;3.070;2022-07-29T04:24:59;17.17;;;7.03;;
57923;SDS011;43737;50.632;3.070;2022-07-29T04:27:25;14.02;;;7.03;;
57923;SDS011;43737;50.632;3.070;2022-07-29T04:29:51;17.73;;;7.70;;
57923;SDS011;43737;50.632;3.070;2022-07-29T04:32:17;17.75;;;7.72;;
57923;SDS011;43737;50.632;3.070;2022-07-29T04:34:43;18.13;;;8.80;;
57923;SDS011;43737;50.632;3.070;2022-07-29T04:37:11;16.90;;;7.05;;
57923;SDS011;43737;50.632;3.070;2022-07-29T04:39:37;14.32;;;8.23;;
57923;SDS011;43737;50.632;3.070;2022-07-29T04:42:03;10.07;;;6.90;;
57923;SDS011;43737;50.632;3.070;2022-07-29T04:44:29;17.67;;;7.43;;
57923;SDS011;43737;50.632;3.070;2022-07-29T04:46:56;16.08;;;7.60;;
57923;SDS011;43737;50.632;3.070;2022-07-29T04:49:22;11.43;;;7.32;;
57923;SDS011;43737;50.632;3.070;2022-07-29T04:51:48;13.88;;;8.07;;
57923;SDS011;43737;50.632;3.070;2022-07-29T04:54:14;18.60;;;7.43;;
57923;SDS011;43737;50.632;3.070;2022-07-29T04:56:40;21.83;;;8.23;;
57923;SDS011;43737;50.632;3.070;2022-07-29T04:59:07;21.92;;;8.75;;
57923;SDS011;43737;50.632;3.070;2022-07-29T05:01:34;22.10;;;7.90;;
57923;SDS011;43737;50.632;3.070;2022-07-29T05:04:00;20.92;;;8.07;;
57923;SDS011;43737;50.632;3.070;2022-07-29T05:06:26;16.05;;;7.57;;
57923;SDS011;43737;50.632;3.070;2022-07-29T05:08:52;18.08;;;7.75;;
57923;SDS011;43737;50.632;3.070;2022-07-29T05:11:18;19.60;;;8.88;;
57923;SDS011;43737;50.632;3.070;2022-07-29T05:13:44;24.73;;;8.57;;
57923;SDS011;43737;50.632;3.070;2022-07-29T05:16:10;21.80;;;9.57;;
57923;SDS011;43737;50.632;3.070;2022-07-29T05:18:36;21.08;;;8.90;;
57923;SDS011;43737;50.632;3.070;2022-07-29T05:23:53;17.92;;;9.05;;
57923;SDS011;43737;50.632;3.070;2022-07-29T05:26:19;20.67;;;8.65;;
57923;SDS011;43737;50.632;3.070;2022-07-29T05:28:45;24.33;;;9.70;;
57923;SDS011;43737;50.632;3.070;2022-07-29T05:31:11;24.52;;;10.27;;
57923;SDS011;43737;50.632;3.070;2022-07-29T05:33:39;22.60;;;9.20;;
57923;SDS011;43737;50.632;3.070;2022-07-29T05:36:05;28.55;;;9.75;;
57923;SDS011;43737;50.632;3.070;2022-07-29T05:38:35;20.75;;;9.55;;
57923;SDS011;43737;50.632;3.070;2022-07-29T05:41:01;28.40;;;9.73;;
57923;SDS011;43737;50.632;3.070;2022-07-29T05:43:28;28.42;;;9.82;;
57923;SDS011;43737;50.632;3.070;2022-07-29T05:45:54;21.77;;;9.32;;
57923;SDS011;43737;50.632;3.070;2022-07-29T05:48:20;19.83;;;10.27;;
57923;SDS011;43737;50.632;3.070;2022-07-29T05:50:46;21.48;;;8.55;;
57923;SDS011;43737;50.632;3.070;2022-07-29T05:53:12;23.20;;;9.35;;
57923;SDS011;43737;50.632;3.070;2022-07-29T05:55:38;17.90;;;9.45;;
57923;SDS011;43737;50.632;3.070;2022-07-29T05:58:04;20.17;;;9.98;;
57923;SDS011;43737;50.632;3.070;2022-07-29T06:00:30;28.10;;;9.70;;
57923;SDS011;43737;50.632;3.070;2022-07-29T06:02:56;23.38;;;10.88;;
57923;SDS011;43737;50.632;3.070;2022-07-29T06:05:22;35.70;;;12.35;;
57923;SDS011;43737;50.632;3.070;2022-07-29T06:07:48;37.58;;;10.65;;
57923;SDS011;43737;50.632;3.070;2022-07-29T06:10:14;29.65;;;10.18;;
57923;SDS011;43737;50.632;3.070;2022-07-29T06:12:40;25.58;;;9.90;;
57923;SDS011;43737;50.632;3.070;2022-07-29T06:15:06;24.58;;;9.48;;
57923;SDS011;43737;50.632;3.070;2022-07-29T06:17:32;22.52;;;9.55;;
57923;SDS011;43737;50.632;3.070;2022-07-29T06:19:58;31.90;;;10.18;;
57923;SDS011;43737;50.632;3.070;2022-07-29T06:22:24;47.33;;;11.40;;
57923;SDS011;43737;50.632;3.070;2022-07-29T06:24:50;29.90;;;10.98;;
57923;SDS011;43737;50.632;3.070;2022-07-29T06:27:16;32.17;;;10.10;;
57923;SDS011;43737;50.632;3.070;2022-07-29T06:29:42;27.00;;;7.95;;
57923;SDS011;43737;50.632;3.070;2022-07-29T06:32:08;18.48;;;8.13;;
57923;SDS011;43737;50.632;3.070;2022-07-29T06:34:35;28.67;;;9.02;;
57923;SDS011;43737;50.632;3.070;2022-07-29T06:37:10;31.25;;;9.77;;
57923;SDS011;43737;50.632;3.070;2022-07-29T06:39:36;25.15;;;8.52;;
57923;SDS011;43737;50.632;3.070;2022-07-29T06:42:05;21.15;;;7.85;;
57923;SDS011;43737;50.632;3.070;2022-07-29T06:44:31;22.02;;;8.10;;
57923;SDS011;43737;50.632;3.070;2022-07-29T06:47:00;21.23;;;9.95;;
57923;SDS011;43737;50.632;3.070;2022-07-29T06:49:27;20.10;;;9.10;;
57923;SDS011;43737;50.632;3.070;2022-07-29T06:51:53;23.35;;;9.60;;
57923;SDS011;43737;50.632;3.070;2022-07-29T06:54:19;18.98;;;8.50;;
57923;SDS011;43737;50.632;3.070;2022-07-29T06:56:46;19.38;;;8.30;;
57923;SDS011;43737;50.632;3.070;2022-07-29T06:59:12;14.95;;;7.93;;
57923;SDS011;43737;50.632;3.070;2022-07-29T07:01:39;24.00;;;8.02;;
57923;SDS011;43737;50.632;3.070;2022-07-29T07:04:06;14.55;;;7.57;;
57923;SDS011;43737;50.632;3.070;2022-07-29T07:06:33;18.35;;;8.40;;
57923;SDS011;43737;50.632;3.070;2022-07-29T07:08:59;17.48;;;7.55;;
57923;SDS011;43737;50.632;3.070;2022-07-29T07:11:25;20.02;;;9.48;;
57923;SDS011;43737;50.632;3.070;2022-07-29T07:13:51;14.90;;;7.47;;
57923;SDS011;43737;50.632;3.070;2022-07-29T07:16:17;19.40;;;7.65;;
57923;SDS011;43737;50.632;3.070;2022-07-29T07:18:43;21.38;;;8.48;;
57923;SDS011;43737;50.632;3.070;2022-07-29T07:21:10;18.25;;;7.57;;
57923;SDS011;43737;50.632;3.070;2022-07-29T07:23:36;18.35;;;8.60;;
57923;SDS011;43737;50.632;3.070;2022-07-29T07:26:02;18.13;;;9.00;;
57923;SDS011;43737;50.632;3.070;2022-07-29T07:28:30;21.92;;;7.13;;
57923;SDS011;43737;50.632;3.070;2022-07-29T07:30:56;18.05;;;6.82;;
57923;SDS011;43737;50.632;3.070;2022-07-29T07:33:22;19.35;;;7.93;;
57923;SDS011;43737;50.632;3.070;2022-07-29T07:35:49;14.75;;;8.10;;
57923;SDS011;43737;50.632;3.070;2022-07-29T07:38:15;19.27;;;8.35;;
57923;SDS011;43737;50.632;3.070;2022-07-29T07:40:41;20.95;;;7.55;;
57923;SDS011;43737;50.632;3.070;2022-07-29T07:43:07;21.45;;;10.02;;
57923;SDS011;43737;50.632;3.070;2022-07-29T07:45:33;14.95;;;7.60;;
57923;SDS011;43737;50.632;3.070;2022-07-29T07:48:01;15.90;;;7.63;;
57923;SDS011;43737;50.632;3.070;2022-07-29T07:50:28;16.85;;;7.07;;
57923;SDS011;43737;50.632;3.070;2022-07-29T07:52:54;16.35;;;6.88;;
57923;SDS011;43737;50.632;3.070;2022-07-29T07:55:22;10.55;;;6.47;;
57923;SDS011;43737;50.632;3.070;2022-07-29T07:57:48;14.13;;;6.22;;
57923;SDS011;43737;50.632;3.070;2022-07-29T08:00:15;16.50;;;6.68;;
57923;SDS011;43737;50.632;3.070;2022-07-29T08:02:41;14.07;;;7.00;;
57923;SDS011;43737;50.632;3.070;2022-07-29T08:05:10;8.90;;;5.43;;
57923;SDS011;43737;50.632;3.070;2022-07-29T08:07:38;13.57;;;5.85;;
57923;SDS011;43737;50.632;3.070;2022-07-29T08:10:04;9.98;;;5.63;;
57923;SDS011;43737;50.632;3.070;2022-07-29T08:12:30;13.15;;;6.20;;
57923;SDS011;43737;50.632;3.070;2022-07-29T08:14:56;12.93;;;5.90;;
57923;SDS011;43737;50.632;3.070;2022-07-29T08:17:22;19.42;;;6.95;;
57923;SDS011;43737;50.632;3.070;2022-07-29T08:19:48;18.35;;;6.07;;
57923;SDS011;43737;50.632;3.070;2022-07-29T08:22:14;20.75;;;6.97;;
57923;SDS011;43737;50.632;3.070;2022-07-29T08:24:41;14.27;;;6.10;;
57923;SDS011;43737;50.632;3.070;2022-07-29T08:27:17;14.43;;;6.13;;
57923;SDS011;43737;50.632;3.070;2022-07-29T08:29:43;11.40;;;6.25;;
57923;SDS011;43737;50.632;3.070;2022-07-29T08:32:09;14.32;;;6.15;;
57923;SDS011;43737;50.632;3.070;2022-07-29T08:34:35;15.68;;;5.90;;
57923;SDS011;43737;50.632;3.070;2022-07-29T08:37:01;19.83;;;7.28;;
57923;SDS011;43737;50.632;3.070;2022-07-29T08:39:27;19.90;;;7.30;;
57923;SDS011;43737;50.632;3.070;2022-07-29T08:41:53;16.67;;;6.15;;
57923;SDS011;43737;50.632;3.070;2022-07-29T08:44:20;22.65;;;7.90;;
57923;SDS011;43737;50.632;3.070;2022-07-29T08:46:47;12.70;;;7.05;;
57923;SDS011;43737;50.632;3.070;2022-07-29T08:49:13;19.02;;;6.53;;
57923;SDS011;43737;50.632;3.070;2022-07-29T08:51:39;14.80;;;6.30;;
57923;SDS011;43737;50.632;3.070;2022-07-29T08:54:07;11.60;;;6.65;;
57923;SDS011;43737;50.632;3.070;2022-07-29T08:56:33;16.27;;;6.70;;
57923;SDS011;43737;50.632;3.070;2022-07-29T08:59:02;24.85;;;6.43;;
57923;SDS011;43737;50.632;3.070;2022-07-29T09:01:29;20.80;;;6.10;;
57923;SDS011;43737;50.632;3.070;2022-07-29T09:03:55;19.25;;;6.70;;
57923;SDS011;43737;50.632;3.070;2022-07-29T09:06:22;13.00;;;5.82;;
57923;SDS011;43737;50.632;3.070;2022-07-29T09:08:48;12.90;;;7.07;;
57923;SDS011;43737;50.632;3.070;2022-07-29T09:11:14;14.70;;;6.72;;
57923;SDS011;43737;50.632;3.070;2022-07-29T09:13:40;16.67;;;7.72;;
57923;SDS011;43737;50.632;3.070;2022-07-29T09:16:06;14.85;;;6.28;;
57923;SDS011;43737;50.632;3.070;2022-07-29T09:20:59;13.02;;;6.55;;
57923;SDS011;43737;50.632;3.070;2022-07-29T09:26:29;13.93;;;6.38;;
57923;SDS011;43737;50.632;3.070;2022-07-29T09:28:58;14.95;;;5.93;;
57923;SDS011;43737;50.632;3.070;2022-07-29T09:31:34;16.70;;;6.35;;
57923;SDS011;43737;50.632;3.070;2022-07-29T09:34:01;11.15;;;5.55;;
57923;SDS011;43737;50.632;3.070;2022-07-29T09:36:27;13.95;;;6.43;;
57923;SDS011;43737;50.632;3.070;2022-07-29T09:38:57;14.82;;;6.25;;
57923;SDS011;43737;50.632;3.070;2022-07-29T09:41:24;10.52;;;6.22;;
57923;SDS011;43737;50.632;3.070;2022-07-29T09:43:53;20.08;;;6.90;;
57923;SDS011;43737;50.632;3.070;2022-07-29T09:46:20;18.20;;;5.57;;
57923;SDS011;43737;50.632;3.070;2022-07-29T09:48:52;11.88;;;6.60;;
57923;SDS011;43737;50.632;3.070;2022-07-29T09:51:31;14.25;;;5.60;;
57923;SDS011;43737;50.632;3.070;2022-07-29T09:53:57;17.95;;;5.50;;
57923;SDS011;43737;50.632;3.070;2022-07-29T09:56:40;18.85;;;6.15;;
57923;SDS011;43737;50.632;3.070;2022-07-29T09:59:07;16.38;;;6.30;;
57923;SDS011;43737;50.632;3.070;2022-07-29T10:01:34;12.93;;;5.53;;
57923;SDS011;43737;50.632;3.070;2022-07-29T10:04:00;15.63;;;6.07;;
57923;SDS011;43737;50.632;3.070;2022-07-29T10:06:27;15.98;;;6.32;;
57923;SDS011;43737;50.632;3.070;2022-07-29T10:08:53;12.50;;;5.53;;
57923;SDS011;43737;50.632;3.070;2022-07-29T10:11:19;13.70;;;5.43;;
57923;SDS011;43737;50.632;3.070;2022-07-29T10:13:46;11.52;;;5.50;;
57923;SDS011;43737;50.632;3.070;2022-07-29T10:16:14;11.50;;;4.78;;
57923;SDS011;43737;50.632;3.070;2022-07-29T10:18:41;9.27;;;4.60;;
57923;SDS011;43737;50.632;3.070;2022-07-29T10:21:08;7.03;;;4.97;;
57923;SDS011;43737;50.632;3.070;2022-07-29T10:23:35;8.55;;;4.75;;
57923;SDS011;43737;50.632;3.070;2022-07-29T10:26:02;9.75;;;5.00;;
57923;SDS011;43737;50.632;3.070;2022-07-29T10:28:29;10.20;;;4.78;;
57923;SDS011;43737;50.632;3.070;2022-07-29T10:30:58;18.02;;;5.00;;
57923;SDS011;43737;50.632;3.070;2022-07-29T10:36:03;8.73;;;4.72;;
57923;SDS011;43737;50.632;3.070;2022-07-29T10:38:34;8.85;;;4.50;;
57923;SDS011;43737;50.632;3.070;2022-07-29T10:43:51;6.82;;;3.28;;
57923;SDS011;43737;50.632;3.070;2022-07-29T10:46:17;5.57;;;3.55;;
57923;SDS011;43737;50.632;3.070;2022-07-29T10:51:50;8.77;;;3.53;;
57923;SDS011;43737;50.632;3.070;2022-07-29T10:54:14;8.45;;;4.13;;
57923;SDS011;43737;50.632;3.070;2022-07-29T10:56:40;5.03;;;3.00;;
57923;SDS011;43737;50.632;3.070;2022-07-29T11:01:45;7.13;;;3.47;;
57923;SDS011;43737;50.632;3.070;2022-07-29T11:04:11;7.35;;;3.00;;
57923;SDS011;43737;50.632;3.070;2022-07-29T11:09:33;6.78;;;3.75;;
57923;SDS011;43737;50.632;3.070;2022-07-29T11:11:59;11.60;;;3.92;;
57923;SDS011;43737;50.632;3.070;2022-07-29T11:17:10;7.20;;;3.10;;
57923;SDS011;43737;50.632;3.070;2022-07-29T11:19:36;10.00;;;2.85;;
57923;SDS011;43737;50.632;3.070;2022-07-29T11:22:07;6.65;;;3.05;;
57923;SDS011;43737;50.632;3.070;2022-07-29T11:24:33;4.13;;;3.17;;
57923;SDS011;43737;50.632;3.070;2022-07-29T11:27:17;4.93;;;2.83;;
57923;SDS011;43737;50.632;3.070;2022-07-29T11:32:14;5.15;;;3.00;;
57923;SDS011;43737;50.632;3.070;2022-07-29T11:34:42;4.50;;;3.08;;
57923;SDS011;43737;50.632;3.070;2022-07-29T11:39:43;8.45;;;2.67;;
57923;SDS011;43737;50.632;3.070;2022-07-29T11:45:04;7.45;;;3.45;;
57923;SDS011;43737;50.632;3.070;2022-07-29T11:47:31;7.10;;;3.35;;
57923;SDS011;43737;50.632;3.070;2022-07-29T11:49:58;8.88;;;3.08;;
57923;SDS011;43737;50.632;3.070;2022-07-29T11:52:35;11.85;;;3.70;;
57923;SDS011;43737;50.632;3.070;2022-07-29T11:55:03;7.95;;;2.97;;
57923;SDS011;43737;50.632;3.070;2022-07-29T11:57:29;5.18;;;2.40;;
57923;SDS011;43737;50.632;3.070;2022-07-29T11:59:55;7.88;;;2.95;;
57923;SDS011;43737;50.632;3.070;2022-07-29T12:02:23;9.15;;;3.53;;
57923;SDS011;43737;50.632;3.070;2022-07-29T12:07:15;5.93;;;2.80;;
57923;SDS011;43737;50.632;3.070;2022-07-29T12:09:48;4.70;;;2.63;;
57923;SDS011;43737;50.632;3.070;2022-07-29T12:12:16;8.13;;;2.60;;
57923;SDS011;43737;50.632;3.070;2022-07-29T12:14:42;7.57;;;2.85;;
57923;SDS011;43737;50.632;3.070;2022-07-29T12:17:21;8.10;;;2.63;;
57923;SDS011;43737;50.632;3.070;2022-07-29T12:19:51;10.23;;;2.83;;
57923;SDS011;43737;50.632;3.070;2022-07-29T12:22:24;8.70;;;2.80;;
57923;SDS011;43737;50.632;3.070;2022-07-29T12:27:17;4.32;;;2.65;;
57923;SDS011;43737;50.632;3.070;2022-07-29T12:29:43;9.43;;;2.60;;
57923;SDS011;43737;50.632;3.070;2022-07-29T12:32:09;8.30;;;3.15;;
57923;SDS011;43737;50.632;3.070;2022-07-29T12:34:35;10.18;;;2.95;;
57923;SDS011;43737;50.632;3.070;2022-07-29T12:37:01;4.97;;;2.30;;
57923;SDS011;43737;50.632;3.070;2022-07-29T12:39:27;3.30;;;2.60;;
57923;SDS011;43737;50.632;3.070;2022-07-29T12:41:53;4.45;;;2.47;;
57923;SDS011;43737;50.632;3.070;2022-07-29T12:44:19;6.00;;;2.15;;
57923;SDS011;43737;50.632;3.070;2022-07-29T12:46:45;6.28;;;2.30;;
57923;SDS011;43737;50.632;3.070;2022-07-29T12:49:26;9.18;;;2.47;;
57923;SDS011;43737;50.632;3.070;2022-07-29T12:51:52;12.55;;;3.38;;
57923;SDS011;43737;50.632;3.070;2022-07-29T12:54:18;3.65;;;2.42;;
57923;SDS011;43737;50.632;3.070;2022-07-29T12:56:45;9.60;;;2.35;;
57923;SDS011;43737;50.632;3.070;2022-07-29T12:59:15;7.43;;;2.85;;
57923;SDS011;43737;50.632;3.070;2022-07-29T13:01:41;5.70;;;2.20;;
57923;SDS011;43737;50.632;3.070;2022-07-29T13:04:07;7.28;;;2.42;;
57923;SDS011;43737;50.632;3.070;2022-07-29T13:06:41;6.20;;;2.40;;
57923;SDS011;43737;50.632;3.070;2022-07-29T13:09:14;5.47;;;2.60;;
57923;SDS011;43737;50.632;3.070;2022-07-29T13:11:41;5.22;;;2.50;;
57923;SDS011;43737;50.632;3.070;2022-07-29T13:14:09;10.07;;;2.50;;
57923;SDS011;43737;50.632;3.070;2022-07-29T13:16:36;7.90;;;2.65;;
57923;SDS011;43737;50.632;3.070;2022-07-29T13:19:06;12.48;;;2.55;;
57923;SDS011;43737;50.632;3.070;2022-07-29T13:21:33;9.02;;;2.47;;
57923;SDS011;43737;50.632;3.070;2022-07-29T13:23:59;6.97;;;2.33;;
57923;SDS011;43737;50.632;3.070;2022-07-29T13:26:25;5.88;;;2.38;;
57923;SDS011;43737;50.632;3.070;2022-07-29T13:28:51;9.75;;;2.65;;
57923;SDS011;43737;50.632;3.070;2022-07-29T13:31:17;5.22;;;2.42;;
57923;SDS011;43737;50.632;3.070;2022-07-29T13:33:43;5.50;;;2.80;;
57923;SDS011;43737;50.632;3.070;2022-07-29T13:36:09;5.57;;;3.13;;
57923;SDS011;43737;50.632;3.070;2022-07-29T13:38:35;7.65;;;3.25;;
57923;SDS011;43737;50.632;3.070;2022-07-29T13:41:01;12.73;;;3.28;;
57923;SDS011;43737;50.632;3.070;2022-07-29T13:43:27;6.53;;;2.42;;
57923;SDS011;43737;50.632;3.070;2022-07-29T13:45:53;13.52;;;2.80;;
57923;SDS011;43737;50.632;3.070;2022-07-29T13:48:19;4.50;;;2.60;;
57923;SDS011;43737;50.632;3.070;2022-07-29T13:50:45;6.55;;;2.22;;
57923;SDS011;43737;50.632;3.070;2022-07-29T13:53:12;6.28;;;2.55;;
57923;SDS011;43737;50.632;3.070;2022-07-29T13:55:38;8.02;;;2.40;;
57923;SDS011;43737;50.632;3.070;2022-07-29T13:58:04;10.18;;;2.95;;
57923;SDS011;43737;50.632;3.070;2022-07-29T14:00:30;7.70;;;2.50;;
57923;SDS011;43737;50.632;3.070;2022-07-29T14:02:56;8.55;;;2.78;;
57923;SDS011;43737;50.632;3.070;2022-07-29T14:05:22;7.78;;;2.35;;
57923;SDS011;43737;50.632;3.070;2022-07-29T14:07:48;6.05;;;2.50;;
57923;SDS011;43737;50.632;3.070;2022-07-29T14:10:14;6.40;;;2.58;;
57923;SDS011;43737;50.632;3.070;2022-07-29T14:12:40;9.13;;;2.33;;
57923;SDS011;43737;50.632;3.070;2022-07-29T14:15:07;9.05;;;3.17;;
57923;SDS011;43737;50.632;3.070;2022-07-29T14:17:33;11.07;;;3.00;;
57923;SDS011;43737;50.632;3.070;2022-07-29T14:19:59;4.50;;;2.63;;
57923;SDS011;43737;50.632;3.070;2022-07-29T14:22:25;7.72;;;2.22;;
57923;SDS011;43737;50.632;3.070;2022-07-29T14:24:51;7.60;;;2.72;;
57923;SDS011;43737;50.632;3.070;2022-07-29T14:27:17;9.13;;;2.58;;
57923;SDS011;43737;50.632;3.070;2022-07-29T14:29:43;5.72;;;2.10;;
57923;SDS011;43737;50.632;3.070;2022-07-29T14:32:09;7.93;;;2.45;;
57923;SDS011;43737;50.632;3.070;2022-07-29T14:34:36;9.10;;;2.83;;
57923;SDS011;43737;50.632;3.070;2022-07-29T14:37:03;14.73;;;2.67;;
57923;SDS011;43737;50.632;3.070;2022-07-29T14:39:30;6.80;;;2.30;;
57923;SDS011;43737;50.632;3.070;2022-07-29T14:41:56;5.13;;;2.50;;
57923;SDS011;43737;50.632;3.070;2022-07-29T14:44:22;6.28;;;3.30;;
57923;SDS011;43737;50.632;3.070;2022-07-29T14:46:49;9.48;;;2.63;;
57923;SDS011;43737;50.632;3.070;2022-07-29T14:49:15;5.45;;;2.55;;
57923;SDS011;43737;50.632;3.070;2022-07-29T14:51:41;8.07;;;2.63;;
57923;SDS011;43737;50.632;3.070;2022-07-29T14:54:08;6.00;;;2.60;;
57923;SDS011;43737;50.632;3.070;2022-07-29T14:56:34;6.22;;;2.15;;
57923;SDS011;43737;50.632;3.070;2022-07-29T14:59:00;12.40;;;2.60;;
57923;SDS011;43737;50.632;3.070;2022-07-29T15:01:26;5.60;;;2.95;;
57923;SDS011;43737;50.632;3.070;2022-07-29T15:03:52;6.57;;;2.53;;
57923;SDS011;43737;50.632;3.070;2022-07-29T15:06:18;13.30;;;2.92;;
57923;SDS011;43737;50.632;3.070;2022-07-29T15:08:44;6.82;;;2.65;;
57923;SDS011;43737;50.632;3.070;2022-07-29T15:11:10;13.20;;;2.80;;
57923;SDS011;43737;50.632;3.070;2022-07-29T15:13:36;6.90;;;3.03;;
57923;SDS011;43737;50.632;3.070;2022-07-29T15:16:02;7.07;;;2.55;;
57923;SDS011;43737;50.632;3.070;2022-07-29T15:18:30;5.45;;;3.08;;
57923;SDS011;43737;50.632;3.070;2022-07-29T15:20:56;5.03;;;3.17;;
57923;SDS011;43737;50.632;3.070;2022-07-29T15:23:22;7.60;;;2.63;;
57923;SDS011;43737;50.632;3.070;2022-07-29T15:25:48;6.40;;;2.88;;
57923;SDS011;43737;50.632;3.070;2022-07-29T15:28:14;6.07;;;2.75;;
57923;SDS011;43737;50.632;3.070;2022-07-29T15:30:40;16.73;;;4.78;;